createdAt,value
2023-03-20T00:00:01.317Z,454.00
2023-03-20T00:01:01.463Z,457.00
2023-03-20T00:02:01.346Z,458.00
2023-03-20T00:03:01.366Z,458.00
2023-03-20T00:04:01.450Z,458.00
2023-03-20T00:05:01.481Z,459.00
2023-03-20T00:06:01.457Z,461.00
2023-03-20T00:07:01.473Z,460.00
2023-03-20T00:08:01.495Z,461.00
2023-03-20T00:09:07.485Z,462.00
2023-03-20T00:10:02.564Z,463.00
2023-03-20T00:11:01.507Z,464.00
2023-03-20T00:12:01.680Z,463.00
2023-03-20T00:13:01.493Z,461.00
2023-03-20T00:14:01.499Z,460.00
2023-03-20T00:15:01.484Z,459.00
2023-03-20T00:16:01.554Z,459.00
2023-03-20T00:17:01.482Z,461.00
2023-03-20T00:18:01.473Z,462.00
2023-03-20T00:19:01.484Z,462.00
2023-03-20T00:20:01.436Z,463.00
2023-03-20T00:21:01.475Z,464.00
2023-03-20T00:22:01.438Z,464.00
2023-03-20T00:23:01.407Z,465.00
2023-03-20T00:24:01.426Z,465.00
2023-03-20T00:25:01.405Z,465.00
2023-03-20T00:26:01.439Z,467.00
2023-03-20T00:27:01.477Z,468.00
2023-03-20T00:28:01.518Z,468.00
2023-03-20T00:29:01.509Z,467.00
2023-03-20T00:30:01.548Z,466.00
2023-03-20T00:31:01.600Z,466.00
2023-03-20T00:32:01.615Z,466.00
2023-03-20T00:33:01.689Z,467.00
2023-03-20T00:34:01.714Z,467.00
2023-03-20T00:35:01.707Z,466.00
2023-03-20T00:36:01.838Z,468.00
2023-03-20T00:37:01.737Z,471.00
2023-03-20T00:38:01.782Z,468.00
2023-03-20T00:39:01.810Z,466.00
2023-03-20T00:40:01.923Z,465.00
2023-03-20T00:41:01.868Z,467.00
2023-03-20T00:42:01.930Z,468.00
2023-03-20T00:43:01.962Z,468.00
2023-03-20T00:44:02.002Z,471.00
2023-03-20T00:45:02.026Z,470.00
2023-03-20T00:46:02.083Z,471.00
2023-03-20T00:47:02.109Z,470.00
2023-03-20T00:48:02.113Z,468.00
2023-03-20T00:49:02.163Z,466.00
2023-03-20T00:50:02.206Z,463.00
2023-03-20T00:51:02.255Z,463.00
2023-03-20T00:52:02.274Z,463.00
2023-03-20T00:53:02.312Z,464.00
2023-03-20T00:54:02.312Z,461.00
2023-03-20T00:55:02.360Z,461.00
2023-03-20T00:56:02.533Z,463.00
2023-03-20T00:57:02.447Z,463.00
2023-03-20T00:58:02.462Z,465.00
2023-03-20T00:59:02.486Z,464.00
2023-03-20T01:00:02.517Z,461.00
2023-03-20T01:01:02.947Z,461.00
2023-03-20T01:02:02.996Z,461.00
2023-03-20T01:03:02.766Z,463.00
2023-03-20T01:04:02.530Z,465.00
2023-03-20T01:05:02.562Z,466.00
2023-03-20T01:06:02.587Z,464.00
2023-03-20T01:07:02.588Z,463.00
2023-03-20T01:08:02.626Z,462.00
2023-03-20T01:09:02.667Z,462.00
2023-03-20T01:10:02.668Z,460.00
2023-03-20T01:11:02.710Z,461.00
2023-03-20T01:12:02.717Z,460.00
2023-03-20T01:13:02.767Z,462.00
2023-03-20T01:14:02.827Z,460.00
2023-03-20T01:15:02.836Z,460.00
2023-03-20T01:16:02.896Z,462.00
2023-03-20T01:17:02.904Z,466.00
2023-03-20T01:18:02.913Z,467.00
2023-03-20T01:19:02.930Z,469.00
2023-03-20T01:20:02.997Z,469.00
2023-03-20T01:21:02.999Z,472.00
2023-03-20T01:22:03.046Z,470.00
2023-03-20T01:23:03.100Z,468.00
2023-03-20T01:24:03.100Z,467.00
2023-03-20T01:25:03.124Z,465.00
2023-03-20T01:26:03.179Z,466.00
2023-03-20T01:27:03.203Z,468.00
2023-03-20T01:28:03.215Z,466.00
2023-03-20T01:29:03.243Z,466.00
2023-03-20T01:30:03.275Z,466.00
2023-03-20T01:31:03.281Z,467.00
2023-03-20T01:32:03.343Z,465.00
2023-03-20T01:33:03.364Z,463.00
2023-03-20T01:34:03.348Z,462.00
2023-03-20T01:35:03.380Z,462.00
2023-03-20T01:36:03.429Z,462.00
2023-03-20T01:37:03.419Z,463.00
2023-03-20T01:38:03.428Z,462.00
2023-03-20T01:39:03.439Z,462.00
2023-03-20T01:40:03.433Z,463.00
2023-03-20T01:41:03.420Z,461.00
2023-03-20T01:42:03.430Z,463.00
2023-03-20T01:43:03.404Z,464.00
2023-03-20T01:44:03.405Z,463.00
2023-03-20T01:45:03.427Z,465.00
2023-03-20T01:46:03.513Z,463.00
2023-03-20T01:47:03.446Z,462.00
2023-03-20T01:48:03.466Z,464.00
2023-03-20T01:49:03.532Z,467.00
2023-03-20T01:50:03.616Z,467.00
2023-03-20T01:51:03.683Z,466.00
2023-03-20T01:52:03.751Z,467.00
2023-03-20T01:53:03.779Z,467.00
2023-03-20T01:54:03.881Z,467.00
2023-03-20T01:55:03.882Z,467.00
2023-03-20T01:56:03.957Z,468.00
2023-03-20T01:57:03.993Z,469.00
2023-03-20T01:58:05.307Z,469.00
2023-03-20T01:59:04.108Z,470.00
2023-03-20T02:00:04.134Z,470.00
2023-03-20T02:01:04.221Z,471.00
2023-03-20T02:02:04.209Z,470.00
2023-03-20T02:04:04.273Z,467.00
2023-03-20T02:05:04.326Z,469.00
2023-03-20T02:06:04.344Z,467.00
2023-03-20T02:07:04.353Z,467.00
2023-03-20T02:08:04.393Z,468.00
2023-03-20T02:09:04.413Z,467.00
2023-03-20T02:10:04.466Z,469.00
2023-03-20T02:11:04.492Z,468.00
2023-03-20T02:12:04.525Z,468.00
2023-03-20T02:13:04.557Z,467.00
2023-03-20T02:14:04.597Z,468.00
2023-03-20T02:15:04.673Z,468.00
2023-03-20T02:16:04.650Z,469.00
2023-03-20T02:17:04.715Z,468.00
2023-03-20T02:18:04.699Z,467.00
2023-03-20T02:19:04.886Z,466.00
2023-03-20T02:20:04.756Z,467.00
2023-03-20T02:21:04.825Z,470.00
2023-03-20T02:22:04.830Z,470.00
2023-03-20T02:23:04.859Z,470.00
2023-03-20T02:24:04.909Z,469.00
2023-03-20T02:25:04.971Z,470.00
2023-03-20T02:27:04.998Z,471.00
2023-03-20T02:28:05.044Z,471.00
2023-03-20T02:29:05.057Z,469.00
2023-03-20T02:30:05.084Z,469.00
2023-03-20T02:31:05.160Z,467.00
2023-03-20T02:32:05.127Z,468.00
2023-03-20T02:33:05.274Z,469.00
2023-03-20T02:34:05.228Z,467.00
2023-03-20T02:35:05.249Z,465.00
2023-03-20T02:36:05.337Z,463.00
2023-03-20T02:37:05.310Z,462.00
2023-03-20T02:38:05.356Z,463.00
2023-03-20T02:39:05.401Z,464.00
2023-03-20T02:40:05.401Z,462.00
2023-03-20T02:41:05.463Z,461.00
2023-03-20T02:42:05.473Z,459.00
2023-03-20T02:43:05.493Z,457.00
2023-03-20T02:44:05.567Z,458.00
2023-03-20T02:45:05.620Z,457.00
2023-03-20T02:46:05.694Z,459.00
2023-03-20T02:47:05.634Z,462.00
2023-03-20T02:48:05.735Z,464.00
2023-03-20T02:49:05.731Z,463.00
2023-03-20T02:50:05.772Z,463.00
2023-03-20T02:51:06.035Z,464.00
2023-03-20T02:52:05.861Z,465.00
2023-03-20T02:53:05.884Z,465.00
2023-03-20T02:54:05.927Z,463.00
2023-03-20T02:55:05.951Z,463.00
2023-03-20T02:56:06.013Z,461.00
2023-03-20T02:57:06.088Z,463.00
2023-03-20T02:58:06.056Z,463.00
2023-03-20T02:59:06.117Z,464.00
2023-03-20T03:00:06.150Z,465.00
2023-03-20T03:01:06.190Z,464.00
2023-03-20T03:02:06.225Z,463.00
2023-03-20T03:03:06.310Z,464.00
2023-03-20T03:04:06.271Z,466.00
2023-03-20T03:05:06.331Z,466.00
2023-03-20T03:06:06.349Z,467.00
2023-03-20T03:07:06.411Z,468.00
2023-03-20T03:08:06.463Z,467.00
2023-03-20T04:33:11.380Z,468.00
2023-03-20T04:35:11.304Z,466.00
2023-03-20T04:36:11.446Z,465.00
2023-03-20T04:37:11.431Z,467.00
2023-03-20T04:38:11.450Z,468.00
2023-03-20T04:39:11.540Z,468.00
2023-03-20T04:40:11.586Z,469.00
2023-03-20T04:41:11.672Z,466.00
2023-03-20T04:42:11.741Z,465.00
2023-03-20T04:43:11.742Z,465.00
2023-03-20T04:44:11.816Z,465.00
2023-03-20T04:45:11.862Z,464.00
2023-03-20T04:46:11.947Z,463.00
2023-03-20T04:47:12.000Z,463.00
2023-03-20T04:48:12.049Z,464.00
2023-03-20T04:49:12.103Z,466.00
2023-03-20T04:50:12.188Z,466.00
2023-03-20T04:51:12.235Z,464.00
2023-03-20T04:52:12.394Z,464.00
2023-03-20T04:53:12.361Z,464.00
2023-03-20T04:54:12.435Z,462.00
2023-03-20T06:01:23.689Z,470.00
2023-03-20T06:45:17.376Z,686.00
2023-03-20T06:46:24.572Z,687.00
2023-03-20T10:09:21.272Z,610.00
2023-03-20T10:10:21.286Z,638.00
2023-03-20T10:11:21.314Z,661.00
2023-03-20T10:12:21.372Z,654.00
2023-03-20T10:13:21.376Z,646.00
2023-03-20T10:14:21.449Z,646.00
2023-03-20T10:15:21.490Z,642.00
2023-03-20T10:16:21.493Z,637.00
2023-03-20T10:17:21.457Z,628.00
2023-03-20T10:18:21.504Z,628.00
2023-03-20T10:19:21.504Z,632.00
2023-03-20T10:20:21.506Z,635.00
2023-03-20T10:21:21.528Z,628.00
2023-03-20T10:22:21.552Z,632.00
2023-03-20T10:23:21.530Z,630.00
2023-03-20T10:24:21.591Z,628.00
2023-03-20T10:25:21.571Z,629.00
2023-03-20T10:26:21.688Z,625.00
2023-03-20T10:27:21.564Z,627.00
2023-03-20T10:28:21.592Z,632.00
2023-03-20T10:29:21.657Z,762.00
2023-03-20T10:30:21.710Z,763.00
2023-03-20T10:31:21.733Z,826.00
2023-03-20T10:32:21.723Z,840.00
2023-03-20T10:33:21.744Z,847.00
2023-03-20T10:34:21.818Z,863.00
2023-03-20T10:35:21.820Z,883.00
2023-03-20T10:36:21.856Z,894.00
2023-03-20T10:37:21.917Z,944.00
2023-03-20T10:38:21.931Z,967.00
2023-03-20T10:39:21.953Z,998.00
2023-03-20T10:40:21.988Z,1010.00
2023-03-20T10:41:21.953Z,1021.00
2023-03-20T10:42:22.040Z,936.00
2023-03-20T10:43:22.051Z,955.00
2023-03-20T10:44:22.047Z,919.00
2023-03-20T10:45:22.334Z,906.00
2023-03-20T10:46:22.203Z,916.00
2023-03-20T10:47:22.147Z,981.00
2023-03-20T10:48:22.182Z,1008.00
2023-03-20T10:49:22.354Z,1004.00
2023-03-20T10:50:22.166Z,1025.00
2023-03-20T10:51:22.184Z,1035.00
2023-03-20T10:52:22.196Z,1014.00
2023-03-20T10:53:22.170Z,1019.00
2023-03-20T10:54:22.242Z,1068.00
2023-03-20T10:55:22.179Z,1068.00
2023-03-20T10:56:22.183Z,1035.00
2023-03-20T10:57:22.224Z,1034.00
2023-03-20T10:58:22.217Z,1045.00
2023-03-20T10:59:22.190Z,1013.00
2023-03-20T11:00:22.428Z,974.00
2023-03-20T11:01:22.220Z,995.00
2023-03-20T11:02:22.255Z,1008.00
2023-03-20T11:03:22.250Z,1023.00
2023-03-20T11:04:22.344Z,1028.00
2023-03-20T11:05:22.323Z,1022.00
2023-03-20T11:06:22.376Z,1020.00
2023-03-20T11:07:22.404Z,700.00
2023-03-20T11:08:22.440Z,690.00
2023-03-20T11:09:22.470Z,688.00
2023-03-20T11:10:22.525Z,676.00
2023-03-20T11:11:22.558Z,672.00
2023-03-20T11:12:22.556Z,678.00
2023-03-20T11:13:22.597Z,687.00
2023-03-20T11:14:22.620Z,726.00
2023-03-20T11:15:22.613Z,778.00
2023-03-20T11:16:22.625Z,792.00
2023-03-20T11:17:22.643Z,696.00
2023-03-20T11:18:22.672Z,652.00
2023-03-20T11:19:22.707Z,653.00
2023-03-20T11:20:22.743Z,658.00
2023-03-20T11:21:22.791Z,667.00
2023-03-20T11:22:22.837Z,671.00
2023-03-20T11:23:22.835Z,663.00
2023-03-20T11:24:22.864Z,656.00
2023-03-20T11:25:23.336Z,662.00
2023-03-20T11:26:22.923Z,729.00
2023-03-20T11:27:22.959Z,744.00
2023-03-20T11:28:22.982Z,769.00
2023-03-20T11:29:22.957Z,795.00
2023-03-20T11:30:22.966Z,811.00
2023-03-20T11:31:23.001Z,816.00
2023-03-20T11:32:22.954Z,811.00
2023-03-20T11:33:22.985Z,782.00
2023-03-20T11:34:22.992Z,625.00
2023-03-20T11:35:23.031Z,602.00
2023-03-20T11:36:23.260Z,599.00
2023-03-20T11:37:23.096Z,602.00
2023-03-20T11:38:23.198Z,610.00
2023-03-20T11:39:23.104Z,619.00
2023-03-20T11:40:23.153Z,608.00
2023-03-20T11:41:23.208Z,605.00
2023-03-20T11:42:23.194Z,606.00
2023-03-20T11:43:23.236Z,608.00
2023-03-20T11:44:23.252Z,612.00
2023-03-20T11:45:23.344Z,617.00
2023-03-20T11:46:23.438Z,622.00
2023-03-20T11:47:23.337Z,626.00
2023-03-20T11:48:23.435Z,629.00
2023-03-20T11:49:23.437Z,631.00
2023-03-20T11:50:23.830Z,634.00
2023-03-20T11:51:23.533Z,640.00
2023-03-20T11:52:23.581Z,641.00
2023-03-20T11:53:23.580Z,633.00
2023-03-20T11:54:23.662Z,632.00
2023-03-20T11:55:23.822Z,634.00
2023-03-20T11:56:23.644Z,635.00
2023-03-20T11:57:23.684Z,637.00
2023-03-20T11:58:23.686Z,639.00
2023-03-20T11:59:23.699Z,640.00
2023-03-20T12:00:23.840Z,639.00
2023-03-20T12:01:23.687Z,638.00
2023-03-20T12:02:23.739Z,635.00
2023-03-20T12:03:23.710Z,635.00
2023-03-20T12:04:23.671Z,635.00
2023-03-20T12:05:23.829Z,634.00
2023-03-20T12:06:23.677Z,633.00
2023-03-20T12:07:23.682Z,631.00
2023-03-20T12:08:23.696Z,629.00
2023-03-20T12:09:23.723Z,627.00
2023-03-20T12:10:23.782Z,629.00
2023-03-20T12:11:23.814Z,627.00
2023-03-20T12:12:23.892Z,625.00
2023-03-20T12:13:23.925Z,625.00
2023-03-20T12:14:23.997Z,627.00
2023-03-20T12:15:24.063Z,630.00
2023-03-20T12:16:24.217Z,636.00
2023-03-20T12:17:24.188Z,638.00
2023-03-20T12:18:24.267Z,639.00
2023-03-20T12:19:24.301Z,643.00
2023-03-20T12:20:25.817Z,643.00
2023-03-20T12:21:24.465Z,649.00
2023-03-20T12:22:24.473Z,653.00
2023-03-20T12:23:24.529Z,657.00
2023-03-20T12:24:24.634Z,659.00
2023-03-20T12:25:24.705Z,664.00
2023-03-20T12:26:24.663Z,656.00
2023-03-20T12:27:24.673Z,629.00
2023-03-20T12:28:24.718Z,622.00
2023-03-20T12:29:24.773Z,613.00
2023-03-20T12:30:24.859Z,617.00
2023-03-20T12:31:24.919Z,619.00
2023-03-20T12:32:24.893Z,614.00
2023-03-20T12:33:24.919Z,616.00
2023-03-20T12:34:24.961Z,614.00
2023-03-20T12:35:25.350Z,615.00
2023-03-20T12:36:24.968Z,618.00
2023-03-20T12:37:24.974Z,623.00
2023-03-20T12:38:24.996Z,627.00
2023-03-20T12:39:24.992Z,629.00
2023-03-20T12:40:27.469Z,632.00
2023-03-20T12:41:24.964Z,634.00
2023-03-20T12:42:25.036Z,637.00
2023-03-20T12:43:25.129Z,637.00
2023-03-20T12:44:25.015Z,637.00
2023-03-20T12:45:24.980Z,639.00
2023-03-20T12:46:24.959Z,638.00
2023-03-20T12:47:24.919Z,639.00
2023-03-20T12:48:24.965Z,637.00
2023-03-20T12:49:24.919Z,636.00
2023-03-20T12:50:24.945Z,636.00
2023-03-20T12:51:24.933Z,635.00
2023-03-20T12:52:24.929Z,632.00
2023-03-20T12:53:24.914Z,629.00
2023-03-20T12:54:24.893Z,630.00
2023-03-20T12:55:24.904Z,627.00
2023-03-20T12:56:24.914Z,623.00
2023-03-20T12:57:24.875Z,594.00
2023-03-20T12:59:24.865Z,572.00
2023-03-20T13:01:24.888Z,568.00
2023-03-20T13:03:24.818Z,562.00
2023-03-20T18:02:31.269Z,675.00
2023-03-20T18:03:31.262Z,672.00
2023-03-20T18:04:31.270Z,669.00
2023-03-20T18:05:31.266Z,669.00
2023-03-20T18:06:31.291Z,668.00
2023-03-20T18:07:31.598Z,666.00
2023-03-20T18:08:31.327Z,663.00
2023-03-20T18:09:31.310Z,662.00
2023-03-20T18:10:31.330Z,662.00
2023-03-20T18:11:31.334Z,660.00
2023-03-20T18:12:31.311Z,661.00
2023-03-20T18:13:31.350Z,659.00
2023-03-20T18:14:31.335Z,656.00
2023-03-20T18:15:31.403Z,655.00
2023-03-20T18:16:31.400Z,654.00
2023-03-20T18:17:31.390Z,652.00
2023-03-20T18:18:31.402Z,650.00
2023-03-20T18:19:31.405Z,647.00
2023-03-20T18:20:31.443Z,646.00
2023-03-20T18:21:31.441Z,644.00
2023-03-20T18:22:31.416Z,641.00
2023-03-20T18:23:31.455Z,641.00
2023-03-20T18:24:31.470Z,639.00
2023-03-20T18:25:31.456Z,636.00
2023-03-20T18:26:31.487Z,635.00
2023-03-20T18:27:31.497Z,632.00
2023-03-20T18:28:31.520Z,630.00
2023-03-20T18:29:31.532Z,628.00
2023-03-20T18:30:31.526Z,626.00
2023-03-20T18:31:31.665Z,624.00
2023-03-20T18:32:31.570Z,621.00
2023-03-20T18:33:31.569Z,621.00
2023-03-20T18:35:31.614Z,619.00
2023-03-20T18:36:31.616Z,619.00
2023-03-20T18:37:31.620Z,618.00
2023-03-20T18:38:31.628Z,616.00
2023-03-20T18:39:31.676Z,614.00
2023-03-20T18:40:31.645Z,613.00
2023-03-20T18:41:31.710Z,611.00
2023-03-20T18:42:31.708Z,612.00
2023-03-20T18:43:31.729Z,611.00
2023-03-20T18:44:31.738Z,610.00
2023-03-20T18:45:31.833Z,608.00
2023-03-20T18:46:31.916Z,608.00
2023-03-20T18:47:31.826Z,608.00
2023-03-20T18:48:31.804Z,606.00
2023-03-20T18:49:31.820Z,604.00
2023-03-20T18:50:31.835Z,599.00
2023-03-20T18:51:31.853Z,600.00
2023-03-20T18:52:31.889Z,597.00
2023-03-20T18:53:31.886Z,596.00
2023-03-20T18:54:31.909Z,596.00
2023-03-20T18:55:31.920Z,596.00
2023-03-20T18:56:31.954Z,595.00
2023-03-20T18:57:31.934Z,596.00
2023-03-20T18:58:32.012Z,593.00
2023-03-20T18:59:32.134Z,593.00
2023-03-20T19:00:32.011Z,591.00
2023-03-20T19:01:32.081Z,589.00
2023-03-20T19:02:32.088Z,587.00
2023-03-20T19:03:32.128Z,586.00
2023-03-20T19:04:32.111Z,583.00
2023-03-20T19:05:32.119Z,581.00
2023-03-20T19:06:32.380Z,582.00
2023-03-20T19:07:32.167Z,581.00
2023-03-20T19:08:32.198Z,579.00
2023-03-20T19:09:32.198Z,577.00
2023-03-20T19:10:32.255Z,574.00
2023-03-20T19:11:32.269Z,571.00
2023-03-20T19:12:32.298Z,573.00
2023-03-20T19:13:32.297Z,574.00
2023-03-20T19:14:32.350Z,574.00
2023-03-20T19:15:32.379Z,573.00
2023-03-20T19:16:32.409Z,572.00
2023-03-20T19:17:32.397Z,570.00
2023-03-20T19:18:32.450Z,569.00
2023-03-20T19:19:32.458Z,568.00
2023-03-20T19:20:32.490Z,568.00
2023-03-20T19:21:32.518Z,568.00
2023-03-20T19:22:32.544Z,568.00
2023-03-20T19:23:32.557Z,569.00
2023-03-20T19:24:32.594Z,567.00
2023-03-20T19:25:32.582Z,568.00
2023-03-20T19:26:32.647Z,567.00
2023-03-20T19:27:32.948Z,567.00
2023-03-20T19:28:40.433Z,564.00
2023-03-20T19:29:33.636Z,564.00
2023-03-20T19:30:32.638Z,563.00
2023-03-20T19:31:32.674Z,562.00
2023-03-20T19:32:32.647Z,559.00
2023-03-20T19:33:32.667Z,557.00
2023-03-20T19:35:23.033Z,558.00
2023-03-20T19:36:33.656Z,558.00
2023-03-20T19:37:32.607Z,556.00
2023-03-20T19:38:32.584Z,558.00
2023-03-20T19:39:32.605Z,556.00
2023-03-20T19:40:32.559Z,556.00
2023-03-20T19:41:32.670Z,554.00
2023-03-20T19:42:59.040Z,550.00
2023-03-20T19:43:33.560Z,550.00
2023-03-20T19:44:32.574Z,550.00
2023-03-20T19:45:32.601Z,552.00
2023-03-20T19:46:41.668Z,550.00
2023-03-20T19:47:33.593Z,548.00
2023-03-20T19:48:49.660Z,548.00
2023-03-20T19:49:33.543Z,549.00
2023-03-20T19:50:32.528Z,551.00
2023-03-20T19:51:32.496Z,550.00
2023-03-20T19:52:32.517Z,548.00
2023-03-20T19:53:32.491Z,547.00
2023-03-20T19:54:32.834Z,547.00
2023-03-20T19:55:32.513Z,546.00
2023-03-20T19:56:32.475Z,543.00
2023-03-20T19:57:32.469Z,542.00
2023-03-20T19:58:32.579Z,541.00
2023-03-20T19:59:32.824Z,540.00
2023-03-20T20:00:57.277Z,541.00
2023-03-20T20:02:32.503Z,542.00
2023-03-20T20:03:32.426Z,541.00
2023-03-20T20:04:32.390Z,540.00
2023-03-20T20:05:32.400Z,538.00
2023-03-20T20:06:33.248Z,537.00
2023-03-20T20:09:32.559Z,536.00
2023-03-20T20:10:32.357Z,536.00
2023-03-20T20:11:32.383Z,534.00
2023-03-20T20:12:32.360Z,534.00
2023-03-20T20:13:32.332Z,533.00
2023-03-20T20:14:35.011Z,529.00
2023-03-20T20:15:32.526Z,530.00
2023-03-20T20:16:32.387Z,532.00
2023-03-20T20:17:32.303Z,535.00
2023-03-20T20:18:32.339Z,533.00
2023-03-20T20:19:32.407Z,534.00
2023-03-20T20:20:34.587Z,534.00
2023-03-20T20:22:17.269Z,534.00
2023-03-20T20:23:32.270Z,533.00
2023-03-20T20:24:32.242Z,531.00
2023-03-20T20:25:32.247Z,529.00
2023-03-20T20:27:32.257Z,526.00
2023-03-20T20:28:32.251Z,527.00
2023-03-20T20:29:32.274Z,524.00
2023-03-20T20:30:32.218Z,524.00
2023-03-20T20:31:32.255Z,523.00
2023-03-20T20:32:32.463Z,523.00
2023-03-20T20:33:34.196Z,523.00
2023-03-20T20:35:56.046Z,521.00
2023-03-20T20:37:36.051Z,523.00
2023-03-20T20:38:49.291Z,525.00
2023-03-20T20:39:33.303Z,523.00
2023-03-20T20:40:32.183Z,523.00
2023-03-20T20:41:32.138Z,524.00
2023-03-20T20:42:32.150Z,521.00
2023-03-20T20:44:06.748Z,519.00
2023-03-20T20:45:32.325Z,515.00
2023-03-20T20:46:32.227Z,514.00
2023-03-20T20:47:32.125Z,512.00
2023-03-20T20:48:32.138Z,512.00
2023-03-20T20:49:32.113Z,512.00
2023-03-20T20:50:32.094Z,513.00
2023-03-20T20:51:32.092Z,513.00
2023-03-20T20:52:32.075Z,511.00
2023-03-20T20:53:32.080Z,511.00
2023-03-20T20:54:32.080Z,512.00
2023-03-20T20:55:32.093Z,512.00
2023-03-20T20:56:32.438Z,511.00
2023-03-20T20:57:32.416Z,512.00
2023-03-20T20:58:32.042Z,512.00
2023-03-20T20:59:32.046Z,512.00
2023-03-20T21:00:48.368Z,513.00
2023-03-20T21:01:33.113Z,513.00
2023-03-20T21:02:32.090Z,514.00
2023-03-20T21:03:32.008Z,513.00
2023-03-20T21:04:31.989Z,514.00
2023-03-20T21:05:32.007Z,514.00
2023-03-20T21:06:58.206Z,513.00
2023-03-20T21:07:32.994Z,512.00
2023-03-20T21:08:31.964Z,513.00
2023-03-20T21:09:31.969Z,515.00
2023-03-20T21:10:31.952Z,513.00
2023-03-20T21:11:31.947Z,513.00
2023-03-20T21:12:40.241Z,513.00
2023-03-20T21:13:33.032Z,512.00
2023-03-20T21:14:32.043Z,512.00
2023-03-20T21:15:32.053Z,512.00
2023-03-20T21:16:32.272Z,514.00
2023-03-20T21:17:32.093Z,516.00
2023-03-20T21:18:32.126Z,518.00
2023-03-20T21:19:32.161Z,519.00
2023-03-20T21:20:32.215Z,519.00
2023-03-20T21:21:32.240Z,517.00
2023-03-20T21:22:32.276Z,515.00
2023-03-20T21:23:32.315Z,513.00
2023-03-20T21:24:34.357Z,510.00
2023-03-20T21:25:40.191Z,509.00
2023-03-20T21:27:32.326Z,506.00
2023-03-20T21:28:32.339Z,507.00
2023-03-20T21:29:32.363Z,509.00
2023-03-20T21:30:32.325Z,512.00
2023-03-20T21:31:32.360Z,511.00
2023-03-20T21:32:32.314Z,513.00
2023-03-20T21:33:32.322Z,512.00
2023-03-20T21:34:32.303Z,510.00
2023-03-20T21:35:32.314Z,510.00
2023-03-20T21:36:32.436Z,509.00
2023-03-20T21:38:29.995Z,511.00
2023-03-20T21:39:32.282Z,513.00
2023-03-20T21:40:32.240Z,515.00
2023-03-20T21:41:32.251Z,514.00
2023-03-20T21:42:32.237Z,514.00
2023-03-20T21:43:32.322Z,515.00
2023-03-20T21:45:24.228Z,517.00
2023-03-20T21:53:09.236Z,511.00
2023-03-20T22:01:29.520Z,511.00
2023-03-20T22:02:33.255Z,511.00
2023-03-20T22:04:06.180Z,508.00
2023-03-20T22:08:05.300Z,504.00
2023-03-20T22:10:15.024Z,506.00
2023-03-20T22:12:16.621Z,504.00
2023-03-20T22:16:29.982Z,498.00
2023-03-20T22:18:19.390Z,493.00
2023-03-20T22:26:20.945Z,494.00
2023-03-20T22:28:06.787Z,495.00
2023-03-20T22:32:21.001Z,495.00
2023-03-20T22:36:18.627Z,495.00
2023-03-20T22:38:39.348Z,495.00
2023-03-20T22:45:38.225Z,499.00
2023-03-20T22:46:48.175Z,497.00
2023-03-20T22:47:32.836Z,495.00
2023-03-20T22:48:31.776Z,497.00
2023-03-20T22:49:31.757Z,498.00
2023-03-20T22:50:31.774Z,498.00
2023-03-20T22:51:37.053Z,498.00
2023-03-20T22:52:48.170Z,497.00
2023-03-20T22:53:32.735Z,497.00
2023-03-20T22:54:31.759Z,498.00
2023-03-20T22:55:31.777Z,493.00
2023-03-20T22:56:31.731Z,493.00
2023-03-20T22:57:42.231Z,494.00
2023-03-20T22:58:32.716Z,496.00
2023-03-20T22:59:31.713Z,499.00
2023-03-20T23:00:31.717Z,499.00
2023-03-20T23:01:31.758Z,498.00
2023-03-20T23:02:31.708Z,497.00
2023-03-20T23:03:41.399Z,496.00
2023-03-20T23:04:32.760Z,496.00
2023-03-20T23:05:31.670Z,494.00
2023-03-20T23:06:31.706Z,492.00
2023-03-20T23:07:31.684Z,491.00
2023-03-20T23:08:36.178Z,490.00
2023-03-20T23:09:32.661Z,490.00
2023-03-20T23:10:31.668Z,488.00
2023-03-20T23:11:31.653Z,488.00
2023-03-20T23:12:31.640Z,488.00
2023-03-20T23:13:31.649Z,488.00
2023-03-20T23:14:44.797Z,488.00
2023-03-20T23:15:32.632Z,487.00
2023-03-20T23:16:31.665Z,488.00
2023-03-20T23:17:31.608Z,486.00
2023-03-20T23:18:31.602Z,485.00
2023-03-20T23:19:37.814Z,484.00
2023-03-20T23:20:32.568Z,484.00
2023-03-20T23:21:31.639Z,485.00
2023-03-20T23:22:31.593Z,484.00
2023-03-20T23:23:31.545Z,484.00
2023-03-20T23:24:31.551Z,485.00
2023-03-20T23:25:39.282Z,486.00
2023-03-20T23:26:32.557Z,488.00
2023-03-20T23:27:31.538Z,487.00
2023-03-20T23:28:31.531Z,485.00
2023-03-20T23:29:31.506Z,484.00
2023-03-20T23:30:43.526Z,485.00
2023-03-20T23:31:32.552Z,486.00
2023-03-20T23:32:31.465Z,488.00
2023-03-20T23:33:31.463Z,487.00
2023-03-20T23:34:31.497Z,488.00
2023-03-20T23:35:31.551Z,490.00
2023-03-20T23:36:37.852Z,488.00
2023-03-20T23:38:31.471Z,484.00
2023-03-20T23:39:31.464Z,484.00
2023-03-20T23:40:31.436Z,484.00
2023-03-20T23:42:01.689Z,484.00
2023-03-20T23:43:31.396Z,479.00
2023-03-20T23:44:31.427Z,478.00
2023-03-20T23:45:31.394Z,478.00
2023-03-20T23:46:31.407Z,479.00
2023-03-20T23:47:43.893Z,478.00
2023-03-20T23:49:31.389Z,478.00
2023-03-20T23:50:45.859Z,478.00
2023-03-20T23:52:32.170Z,479.00
2023-03-20T23:53:31.354Z,478.00
2023-03-20T23:54:31.365Z,475.00
2023-03-20T23:55:32.682Z,473.00
2023-03-20T23:56:31.334Z,476.00
2023-03-20T23:57:31.294Z,476.00
2023-03-20T23:58:31.313Z,476.00
2023-03-20T23:59:31.309Z,476.00
